Terminal Aerodrome Forecast
Issued by NWS Louisville, KY

Home | Current Version | Previous Version | Text Only | Print | Product List | Glossary On
Versions: 1 2 3 4 5 6 7 8 9 10 11 12 13 14 15 16 17 18 19
000
FTUS43 KLMK 102300
TAFBWG
TAF
KBWG 102320Z 1100/1124 33006KT P6SM FEW060 BKN250
     FM110100 VRB03KT P6SM BKN250
      TEMPO 1109/1113 5SM BR=

USA.gov is the U.S. government's official web portal to all federal, state and local government web resources and services.